createdAt,value
2022-09-07T00:00:04.330Z,210.00
2022-09-07T00:00:39.433Z,210.00
2022-09-07T00:01:14.457Z,208.77
2022-09-07T00:01:49.845Z,210.00
2022-09-07T00:02:24.852Z,210.00
2022-09-07T00:02:59.902Z,210.00
2022-09-07T00:03:34.978Z,210.00
2022-09-07T00:04:10.349Z,209.88
2022-09-07T00:04:45.607Z,210.00
2022-09-07T00:05:20.890Z,208.15
2022-09-07T00:05:56.087Z,209.39
2022-09-07T00:06:31.485Z,209.88
2022-09-07T00:07:06.676Z,208.77
2022-09-07T00:07:41.988Z,210.00
2022-09-07T00:08:17.092Z,210.00
2022-09-07T00:08:52.182Z,210.00
2022-09-07T00:09:27.481Z,210.00
2022-09-07T00:10:02.686Z,209.88
2022-09-07T00:10:37.967Z,210.00
2022-09-07T00:11:12.972Z,209.39
2022-09-07T00:11:48.452Z,209.39
2022-09-07T00:12:23.656Z,210.00
2022-09-07T00:12:58.854Z,208.77
2022-09-07T00:13:34.301Z,209.28
2022-09-07T00:14:09.730Z,209.28
2022-09-07T00:14:44.998Z,209.88
2022-09-07T00:15:20.206Z,210.00
2022-09-07T00:15:55.747Z,210.00
2022-09-07T00:16:31.364Z,209.88
2022-09-07T00:17:06.565Z,210.00
2022-09-07T00:17:42.071Z,209.28
2022-09-07T00:18:17.217Z,209.88
2022-09-07T00:18:52.701Z,210.00
2022-09-07T00:19:27.898Z,209.88
2022-09-07T00:20:02.889Z,209.88
2022-09-07T00:20:38.273Z,210.00
2022-09-07T00:21:13.371Z,209.39
2022-09-07T00:21:48.675Z,209.39
2022-09-07T00:22:23.774Z,210.00
2022-09-07T00:22:58.960Z,209.39
2022-09-07T00:23:33.985Z,210.00
2022-09-07T00:24:09.269Z,208.77
2022-09-07T00:24:44.658Z,210.00
2022-09-07T00:25:19.844Z,209.88
2022-09-07T00:25:55.129Z,210.00
2022-09-07T00:26:30.326Z,209.88
2022-09-07T00:27:05.560Z,210.00
2022-09-07T00:27:40.656Z,210.00
2022-09-07T00:28:16.344Z,209.39
2022-09-07T00:28:51.470Z,210.00
2022-09-07T00:29:26.551Z,210.00
2022-09-07T00:30:01.650Z,209.88
2022-09-07T00:30:36.841Z,209.39
2022-09-07T00:31:11.989Z,210.00
2022-09-07T00:31:47.084Z,209.39
2022-09-07T00:32:22.339Z,129.49
2022-09-07T00:32:57.728Z,120.00
2022-09-07T00:33:32.830Z,120.00
2022-09-07T00:34:07.754Z,120.00
2022-09-07T00:34:42.845Z,120.00
2022-09-07T00:35:18.149Z,174.37
2022-09-07T00:35:53.143Z,208.77
2022-09-07T00:36:28.642Z,239.45
2022-09-07T00:37:03.648Z,243.02
2022-09-07T00:37:39.235Z,231.77
2022-09-07T00:38:14.750Z,222.56
2022-09-07T00:38:49.855Z,284.72
2022-09-07T00:39:24.820Z,251.95
2022-09-07T00:40:00.266Z,226.52
2022-09-07T00:40:35.246Z,220.93
2022-09-07T00:41:10.369Z,214.59
2022-09-07T00:41:45.641Z,235.72
2022-09-07T00:42:20.862Z,226.77
2022-09-07T00:42:56.037Z,224.81
2022-09-07T00:43:31.349Z,209.85
2022-09-07T00:44:06.599Z,220.00
2022-09-07T00:44:41.713Z,229.85
2022-09-07T00:45:17.253Z,232.10
2022-09-07T00:45:52.356Z,232.00
2022-09-07T00:46:27.649Z,243.92
2022-09-07T00:47:02.880Z,217.33
2022-09-07T00:47:38.408Z,225.55
2022-09-07T00:48:13.406Z,222.55
2022-09-07T00:48:48.318Z,241.79
2022-09-07T00:49:23.463Z,258.00
2022-09-07T00:49:58.669Z,240.40
2022-09-07T00:50:33.680Z,230.27
2022-09-07T00:51:08.889Z,224.19
2022-09-07T00:51:43.982Z,230.55
2022-09-07T00:52:19.799Z,246.15
2022-09-07T00:52:54.995Z,223.37
2022-09-07T00:53:30.404Z,226.18
2022-09-07T00:54:05.604Z,229.97
2022-09-07T00:54:41.022Z,230.82
2022-09-07T00:55:16.460Z,231.42
2022-09-07T00:55:52.018Z,245.54
2022-09-07T00:56:27.241Z,244.24
2022-09-07T00:57:02.674Z,227.97
2022-09-07T00:57:38.002Z,236.85
2022-09-07T00:58:13.222Z,241.82
2022-09-07T00:58:48.626Z,231.42
2022-09-07T00:59:23.739Z,218.88
2022-09-07T00:59:59.180Z,220.91
2022-09-07T01:00:34.494Z,160.45
2022-09-07T01:01:10.032Z,240.86
2022-09-07T01:01:45.360Z,217.56
2022-09-07T01:02:20.721Z,243.82
2022-09-07T01:02:56.068Z,216.13
2022-09-07T01:03:31.411Z,232.73
2022-09-07T01:04:06.835Z,244.21
2022-09-07T01:04:42.451Z,226.14
2022-09-07T01:05:17.900Z,196.99
2022-09-07T01:05:53.106Z,236.10
2022-09-07T01:06:28.529Z,240.86
2022-09-07T01:07:03.741Z,231.97
2022-09-07T01:07:39.068Z,226.31
2022-09-07T01:08:14.470Z,208.47
2022-09-07T01:08:49.768Z,238.60
2022-09-07T01:09:25.381Z,234.10
2022-09-07T01:10:00.603Z,247.44
2022-09-07T01:10:35.912Z,212.68
2022-09-07T01:11:11.233Z,245.85
2022-09-07T01:11:46.532Z,216.94
2022-09-07T01:12:21.658Z,232.22
2022-09-07T01:12:56.858Z,250.25
2022-09-07T01:13:32.277Z,211.32
2022-09-07T01:14:07.577Z,242.85
2022-09-07T01:14:42.793Z,219.70
2022-09-07T01:15:18.150Z,245.30
2022-09-07T01:15:53.223Z,234.84
2022-09-07T01:16:28.350Z,236.68
2022-09-07T01:17:03.693Z,226.50
2022-09-07T01:17:38.704Z,219.55
2022-09-07T01:18:14.122Z,243.70
2022-09-07T01:18:49.332Z,227.66
2022-09-07T01:19:24.569Z,245.34
2022-09-07T01:19:59.667Z,244.09
2022-09-07T01:20:35.071Z,254.31
2022-09-07T01:21:10.473Z,239.50
2022-09-07T01:21:45.806Z,248.81
2022-09-07T01:22:20.988Z,230.99
2022-09-07T01:22:55.924Z,230.20
2022-09-07T01:23:31.128Z,207.17
2022-09-07T01:24:06.451Z,248.08
2022-09-07T01:24:41.584Z,217.52
2022-09-07T01:25:17.108Z,251.44
2022-09-07T01:25:52.529Z,222.58
2022-09-07T01:26:27.739Z,222.15
2022-09-07T01:27:02.762Z,216.18
2022-09-07T01:27:38.056Z,227.16
2022-09-07T01:28:13.301Z,272.16
2022-09-07T01:28:48.520Z,219.21
2022-09-07T01:29:24.016Z,252.27
2022-09-07T01:29:59.325Z,253.68
2022-09-07T01:30:34.632Z,234.36
2022-09-07T01:31:09.956Z,250.91
2022-09-07T01:31:45.218Z,249.58
2022-09-07T01:32:20.625Z,221.86
2022-09-07T01:32:56.139Z,217.75
2022-09-07T01:33:31.469Z,255.63
2022-09-07T01:34:06.471Z,228.73
2022-09-07T01:34:41.583Z,215.29
2022-09-07T01:35:16.905Z,234.80
2022-09-07T01:35:52.096Z,251.56
2022-09-07T01:36:27.532Z,240.86
2022-09-07T01:37:02.670Z,248.86
2022-09-07T01:37:37.959Z,216.86
2022-09-07T01:38:13.228Z,233.79
2022-09-07T01:38:48.138Z,223.73
2022-09-07T01:39:23.476Z,203.42
2022-09-07T01:39:58.752Z,231.30
2022-09-07T01:40:34.089Z,210.72
2022-09-07T01:41:08.894Z,210.00
2022-09-07T01:41:44.263Z,242.34
2022-09-07T01:42:19.286Z,224.88
2022-09-07T01:42:54.699Z,243.81
2022-09-07T01:43:29.802Z,249.58
2022-09-07T01:44:05.014Z,247.44
2022-09-07T01:44:40.232Z,228.68
2022-09-07T01:45:15.373Z,228.16
2022-09-07T01:45:50.377Z,217.01
2022-09-07T01:46:25.611Z,239.58
2022-09-07T01:47:01.020Z,208.77
2022-09-07T01:47:36.155Z,239.21
2022-09-07T01:48:11.372Z,225.07
2022-09-07T01:48:46.596Z,234.80
2022-09-07T01:49:21.933Z,252.98
2022-09-07T01:49:57.170Z,235.15
2022-09-07T01:50:32.490Z,242.34
2022-09-07T01:51:08.019Z,255.00
2022-09-07T01:51:43.176Z,234.82
2022-09-07T01:52:18.293Z,234.04
2022-09-07T01:52:53.519Z,230.99
2022-09-07T01:53:28.631Z,221.95
2022-09-07T01:54:04.052Z,209.77
2022-09-07T01:54:39.787Z,222.31
2022-09-07T01:55:15.107Z,233.77
2022-09-07T01:55:50.528Z,224.04
2022-09-07T01:56:25.780Z,209.39
2022-09-07T01:57:01.206Z,230.84
2022-09-07T01:57:36.532Z,249.33
2022-09-07T01:58:11.978Z,211.32
2022-09-07T01:58:47.514Z,210.00
2022-09-07T01:59:22.734Z,210.00
2022-09-07T01:59:57.852Z,209.88
2022-09-07T02:00:33.049Z,210.00
2022-09-07T02:01:08.166Z,226.97
2022-09-07T02:01:43.411Z,248.13
2022-09-07T02:02:18.715Z,227.44
2022-09-07T02:02:53.935Z,243.04
2022-09-07T02:03:28.896Z,237.85
2022-09-07T02:04:04.154Z,209.39
2022-09-07T02:04:39.283Z,221.95
2022-09-07T02:05:14.691Z,250.25
2022-09-07T02:05:49.813Z,255.00
2022-09-07T02:06:25.338Z,210.00
2022-09-07T02:07:00.657Z,240.10
2022-09-07T02:07:36.166Z,182.68
2022-09-07T02:08:11.187Z,43.73
2022-09-07T02:08:46.669Z,179.14
2022-09-07T02:09:21.981Z,210.00
2022-09-07T02:09:57.203Z,209.28
2022-09-07T02:10:32.441Z,143.46
2022-09-07T02:11:07.746Z,120.00
2022-09-07T02:11:43.087Z,200.00
2022-09-07T02:12:18.202Z,210.00
2022-09-07T02:12:53.752Z,212.18
2022-09-07T02:13:29.267Z,216.76
2022-09-07T02:14:04.809Z,210.72
2022-09-07T02:14:40.023Z,210.00
2022-09-07T02:15:15.339Z,210.00
2022-09-07T02:15:50.589Z,218.40
2022-09-07T02:16:26.070Z,208.77
2022-09-07T02:17:01.408Z,209.39
2022-09-07T02:17:36.731Z,212.92
2022-09-07T02:18:11.947Z,210.00
2022-09-07T02:18:47.250Z,248.59
2022-09-07T02:19:22.548Z,255.00
2022-09-07T02:19:57.977Z,255.00
2022-09-07T02:20:33.130Z,255.00
2022-09-07T02:21:08.638Z,255.00
2022-09-07T02:21:43.859Z,255.00
2022-09-07T02:22:19.158Z,255.00
2022-09-07T02:22:54.678Z,253.68
2022-09-07T02:23:30.076Z,212.05
2022-09-07T02:24:05.397Z,209.39
2022-09-07T02:24:40.538Z,210.00
2022-09-07T02:25:15.545Z,209.28
2022-09-07T02:25:50.801Z,210.00
2022-09-07T02:26:26.207Z,210.00
2022-09-07T02:27:01.647Z,210.00
2022-09-07T02:27:36.750Z,209.77
2022-09-07T02:28:11.969Z,231.26
2022-09-07T02:28:47.527Z,252.98
2022-09-07T02:29:22.727Z,242.35
2022-09-07T02:29:58.118Z,210.00
2022-09-07T02:30:33.910Z,209.88
2022-09-07T02:31:09.207Z,210.00
2022-09-07T02:31:44.456Z,209.88
2022-09-07T02:32:19.656Z,209.28
2022-09-07T02:32:55.064Z,208.66
2022-09-07T02:33:30.157Z,209.88
2022-09-07T02:34:05.164Z,222.73
2022-09-07T02:34:40.489Z,177.03
2022-09-07T02:35:15.685Z,210.00
2022-09-07T02:35:51.694Z,209.28
2022-09-07T02:36:27.036Z,208.66
2022-09-07T02:37:02.434Z,209.39
2022-09-07T02:37:37.948Z,237.02
2022-09-07T02:38:13.073Z,194.31
2022-09-07T02:38:48.282Z,76.32
2022-09-07T02:39:23.413Z,70.25
2022-09-07T02:39:59.090Z,56.32
2022-09-07T02:40:34.164Z,30.00
2022-09-07T02:41:09.457Z,30.00
2022-09-07T02:41:44.915Z,30.00
2022-09-07T02:42:20.024Z,259.39
2022-09-07T02:42:55.129Z,241.48
2022-09-07T02:43:30.768Z,162.98
2022-09-07T02:44:06.073Z,99.80
2022-09-07T02:44:41.217Z,75.00
2022-09-07T02:45:16.719Z,75.00
2022-09-07T02:45:52.086Z,150.77
2022-09-07T02:46:27.276Z,173.21
2022-09-07T02:47:03.048Z,139.56
2022-09-07T02:47:38.462Z,75.00
2022-09-07T02:48:13.758Z,78.29
2022-09-07T02:48:49.086Z,210.00
2022-09-07T02:49:24.317Z,195.18
2022-09-07T02:49:59.633Z,171.80
2022-09-07T02:50:34.757Z,171.77
2022-09-07T02:51:10.011Z,86.95
2022-09-07T02:51:45.221Z,75.00
2022-09-07T02:52:20.531Z,204.23
2022-09-07T02:52:55.839Z,211.32
2022-09-07T02:53:31.141Z,255.00
2022-09-07T02:54:06.369Z,310.70
2022-09-07T02:54:41.478Z,30.00
2022-09-07T02:55:16.704Z,30.00
2022-09-07T02:55:52.248Z,30.00
2022-09-07T02:56:27.903Z,72.34
2022-09-07T02:57:03.222Z,75.00
2022-09-07T02:57:38.340Z,75.00
2022-09-07T02:58:13.651Z,81.97
2022-09-07T02:58:48.972Z,128.24
2022-09-07T02:59:24.602Z,209.88
2022-09-07T03:00:00.060Z,210.00
2022-09-07T03:00:35.559Z,209.39
2022-09-07T03:01:10.781Z,210.00
2022-09-07T03:01:46.273Z,186.78
2022-09-07T03:02:21.679Z,190.82
2022-09-07T03:02:57.095Z,60.86
2022-09-07T03:03:32.300Z,30.00
2022-09-07T03:04:07.708Z,30.00
2022-09-07T03:04:42.924Z,75.00
2022-09-07T03:05:18.338Z,75.00
2022-09-07T03:05:53.655Z,75.00
2022-09-07T03:06:28.955Z,203.23
2022-09-07T03:07:03.963Z,101.71
2022-09-07T03:07:43.512Z,75.00
2022-09-07T03:08:14.112Z,84.15
2022-09-07T03:08:49.408Z,164.11
2022-09-07T03:09:24.430Z,72.98
2022-09-07T03:09:59.720Z,64.55
2022-09-07T03:10:34.937Z,75.00
2022-09-07T03:11:10.125Z,75.00
2022-09-07T03:11:45.457Z,75.00
2022-09-07T03:12:20.663Z,75.00
2022-09-07T03:12:55.857Z,79.17
2022-09-07T03:13:31.129Z,139.14
2022-09-07T03:14:06.223Z,38.26
2022-09-07T03:14:41.853Z,56.32
2022-09-07T03:15:17.258Z,75.00
2022-09-07T03:15:55.678Z,95.55
2022-09-07T03:16:27.523Z,117.90
2022-09-07T03:17:02.832Z,43.59
2022-09-07T03:17:38.047Z,59.36
2022-09-07T03:18:13.151Z,52.05
2022-09-07T03:18:48.580Z,58.60
2022-09-07T03:19:23.786Z,50.26
2022-09-07T03:19:58.993Z,63.83
2022-09-07T03:20:34.521Z,50.99
2022-09-07T03:21:09.946Z,58.60
2022-09-07T03:21:45.364Z,55.05
2022-09-07T03:22:20.582Z,72.98
2022-09-07T03:22:55.785Z,62.35
2022-09-07T03:23:30.803Z,45.64
2022-09-07T03:24:06.017Z,72.98
2022-09-07T03:24:41.403Z,62.34
2022-09-07T03:25:16.630Z,65.97
2022-09-07T03:25:52.026Z,68.17
2022-09-07T03:26:27.434Z,50.30
2022-09-07T03:27:02.726Z,113.17
2022-09-07T03:27:37.824Z,124.90
2022-09-07T03:28:13.148Z,13.75
2022-09-07T03:28:48.267Z,58.60
2022-09-07T03:29:23.530Z,61.59
2022-09-07T03:29:58.868Z,65.97
2022-09-07T03:30:34.546Z,75.00
2022-09-07T03:31:09.851Z,73.68
2022-09-07T03:31:45.221Z,60.86
2022-09-07T03:32:20.650Z,75.00
2022-09-07T03:32:56.143Z,75.00
2022-09-07T03:33:31.751Z,65.30
2022-09-07T03:34:06.879Z,75.00
2022-09-07T03:34:41.896Z,71.63
2022-09-07T03:35:16.920Z,70.97
2022-09-07T03:35:52.121Z,30.72
2022-09-07T03:36:27.345Z,68.86
2022-09-07T03:37:02.437Z,58.60
2022-09-07T03:37:37.773Z,77.04
2022-09-07T03:38:12.884Z,58.77
2022-09-07T03:38:48.128Z,72.91
2022-09-07T03:39:23.438Z,80.52
2022-09-07T03:39:58.736Z,63.81
2022-09-07T03:40:33.790Z,75.00
2022-09-07T03:41:09.025Z,75.00
2022-09-07T03:41:44.339Z,40.48
2022-09-07T03:42:20.158Z,30.00
2022-09-07T03:42:55.768Z,298.78
2022-09-07T03:43:31.008Z,282.34
2022-09-07T03:44:06.087Z,345.00
2022-09-07T03:44:41.307Z,346.90
2022-09-07T03:45:16.310Z,346.90
2022-09-07T03:45:51.768Z,344.82
2022-09-07T03:46:26.947Z,345.00
2022-09-07T03:47:02.447Z,354.72
2022-09-07T03:47:37.767Z,345.00
2022-09-07T03:48:12.991Z,355.30
2022-09-07T03:48:48.394Z,50.82
2022-09-07T03:49:23.816Z,71.50
2022-09-07T03:49:59.430Z,75.00
2022-09-07T03:50:34.543Z,75.00
2022-09-07T03:51:09.772Z,75.00
2022-09-07T03:51:45.146Z,75.00
2022-09-07T03:52:20.654Z,75.00
2022-09-07T03:52:56.078Z,75.00
2022-09-07T03:53:31.257Z,75.00
2022-09-07T03:54:06.560Z,75.00
2022-09-07T03:54:41.875Z,75.00
2022-09-07T03:55:17.021Z,75.00
2022-09-07T03:55:52.122Z,75.00
2022-09-07T03:56:27.350Z,75.00
2022-09-07T03:57:02.579Z,75.00
2022-09-07T03:57:37.904Z,75.00
2022-09-07T03:58:12.913Z,134.46
2022-09-07T03:58:48.238Z,171.77
2022-09-07T03:59:23.744Z,182.16
2022-09-07T03:59:59.193Z,196.70
2022-09-07T04:00:34.404Z,174.76
2022-09-07T04:01:10.017Z,205.32
2022-09-07T04:01:45.253Z,83.14
2022-09-07T04:02:20.625Z,191.97
2022-09-07T04:02:55.996Z,210.00
2022-09-07T04:03:31.589Z,231.89
2022-09-07T04:04:06.713Z,216.83
2022-09-07T04:04:42.232Z,209.39
2022-09-07T04:05:17.670Z,209.39
2022-09-07T04:05:53.395Z,208.77
2022-09-07T04:06:28.499Z,210.00
2022-09-07T04:07:03.815Z,210.12
2022-09-07T04:07:39.322Z,210.00
2022-09-07T04:08:14.366Z,210.00
2022-09-07T04:08:49.469Z,209.88
2022-09-07T04:09:24.719Z,207.24
2022-09-07T04:10:00.335Z,174.34
2022-09-07T04:10:35.653Z,198.43
2022-09-07T04:11:10.551Z,192.33
2022-09-07T04:11:45.785Z,211.94
2022-09-07T04:12:20.895Z,209.39
2022-09-07T04:12:56.411Z,210.00
2022-09-07T04:13:31.618Z,245.09
2022-09-07T04:14:06.646Z,219.55
2022-09-07T04:14:41.858Z,207.93
2022-09-07T04:15:17.109Z,218.15
2022-09-07T04:15:53.874Z,209.86
2022-09-07T04:16:27.333Z,213.30
2022-09-07T04:17:02.657Z,210.72
2022-09-07T04:17:37.841Z,209.88
2022-09-07T04:18:12.950Z,210.00
2022-09-07T04:18:47.989Z,208.77
2022-09-07T04:19:23.090Z,210.00
2022-09-07T04:19:58.534Z,210.00
2022-09-07T04:20:33.941Z,209.88
2022-09-07T04:21:09.099Z,209.88
2022-09-07T04:21:44.107Z,209.77
2022-09-07T04:22:19.351Z,204.58
2022-09-07T04:22:54.748Z,226.25
2022-09-07T04:23:29.791Z,226.97
2022-09-07T04:24:05.015Z,203.06
2022-09-07T04:24:40.529Z,210.00
2022-09-07T04:25:15.635Z,209.88
2022-09-07T04:25:50.978Z,209.39
2022-09-07T04:26:26.390Z,210.72
2022-09-07T04:27:09.284Z,255.00
2022-09-07T04:27:44.595Z,138.79
2022-09-07T04:28:19.841Z,75.00
2022-09-07T04:28:55.155Z,168.92
2022-09-07T04:29:30.469Z,209.88
2022-09-07T04:30:05.821Z,179.67
2022-09-07T04:30:41.696Z,209.88
2022-09-07T04:31:16.992Z,26.48
2022-09-07T04:31:52.012Z,341.62
2022-09-07T04:32:27.251Z,76.43
2022-09-07T04:33:02.568Z,139.80
2022-09-07T04:33:37.837Z,147.21
2022-09-07T04:34:13.262Z,152.83
2022-09-07T04:34:48.441Z,194.72
2022-09-07T04:35:23.678Z,110.05
2022-09-07T04:35:59.279Z,71.94
2022-09-07T04:36:34.679Z,75.00
2022-09-07T04:37:09.761Z,191.60
2022-09-07T04:37:44.796Z,209.39
2022-09-07T04:38:20.088Z,210.88
2022-09-07T04:38:55.235Z,210.00
2022-09-07T04:39:30.531Z,209.23
2022-09-07T04:40:05.855Z,210.00
2022-09-07T04:40:41.009Z,180.64
2022-09-07T04:41:16.638Z,218.26
2022-09-07T04:41:51.788Z,210.00
2022-09-07T04:42:27.020Z,211.08
2022-09-07T04:43:02.455Z,189.14
2022-09-07T04:43:37.724Z,183.18
2022-09-07T04:44:16.743Z,210.00
2022-09-07T04:44:48.372Z,209.88
2022-09-07T04:45:23.537Z,209.88
2022-09-07T04:45:59.161Z,117.35
2022-09-07T04:46:34.444Z,194.36
2022-09-07T04:47:10.102Z,210.00
2022-09-07T04:47:45.110Z,209.88
2022-09-07T04:48:20.449Z,210.00
2022-09-07T04:48:55.806Z,209.28
2022-09-07T04:49:31.032Z,210.00
2022-09-07T04:50:06.357Z,210.00
2022-09-07T04:50:41.477Z,210.00
2022-09-07T04:51:16.786Z,221.62
2022-09-07T04:51:51.902Z,208.77
2022-09-07T04:52:27.309Z,198.64
2022-09-07T04:53:02.898Z,229.82
2022-09-07T04:53:37.930Z,210.00
2022-09-07T04:54:13.090Z,210.00
2022-09-07T04:54:48.273Z,209.88
2022-09-07T04:55:23.883Z,209.88
2022-09-07T04:55:58.989Z,211.32
2022-09-07T04:56:34.199Z,188.77
2022-09-07T04:57:09.194Z,202.30
2022-09-07T04:57:44.414Z,140.73
2022-09-07T04:58:19.707Z,173.47
2022-09-07T04:58:55.022Z,220.44
2022-09-07T04:59:30.044Z,163.80
2022-09-07T05:00:05.219Z,75.27
2022-09-07T05:00:40.425Z,161.73
2022-09-07T05:01:15.703Z,146.48
2022-09-07T05:01:50.718Z,80.02
2022-09-07T05:02:26.848Z,132.10
2022-09-07T05:03:01.937Z,196.54
2022-09-07T05:03:37.370Z,100.44
2022-09-07T05:04:12.751Z,78.13
2022-09-07T05:04:48.168Z,45.28
2022-09-07T05:05:23.491Z,76.12
2022-09-07T05:05:58.721Z,218.45
2022-09-07T05:06:34.040Z,209.28
2022-09-07T05:07:09.435Z,42.10
2022-09-07T05:07:44.499Z,106.97
2022-09-07T05:08:19.888Z,223.30
2022-09-07T05:08:54.770Z,210.00
2022-09-07T05:09:30.098Z,110.41
2022-09-07T05:10:05.233Z,186.26
2022-09-07T05:10:40.362Z,199.13
2022-09-07T05:11:15.558Z,93.72
2022-09-07T05:11:50.792Z,214.05
2022-09-07T05:12:26.317Z,226.72
2022-09-07T05:13:01.818Z,193.59
2022-09-07T05:13:37.285Z,110.58
2022-09-07T05:14:12.875Z,94.70
2022-09-07T05:14:48.331Z,84.08
2022-09-07T05:15:23.828Z,197.12
2022-09-07T05:15:59.138Z,203.62
2022-09-07T05:16:34.559Z,208.66
2022-09-07T05:17:10.260Z,167.29
2022-09-07T05:17:45.656Z,21.06
2022-09-07T05:18:20.887Z,157.09
2022-09-07T05:18:56.008Z,187.13
2022-09-07T05:19:31.305Z,205.32
2022-09-07T05:20:07.043Z,167.96
2022-09-07T05:20:42.604Z,240.11
2022-09-07T05:21:17.956Z,242.31
2022-09-07T05:21:53.189Z,94.22
2022-09-07T05:22:28.351Z,233.90
2022-09-07T05:23:03.604Z,176.98
2022-09-07T05:23:38.834Z,192.74
2022-09-07T05:24:14.125Z,191.25
2022-09-07T05:24:49.455Z,207.08
2022-09-07T05:25:25.152Z,212.66
2022-09-07T05:26:00.415Z,209.88
2022-09-07T05:26:35.561Z,206.57
2022-09-07T05:27:10.912Z,209.28
2022-09-07T05:27:46.094Z,210.71
2022-09-07T05:28:21.620Z,223.99
2022-09-07T05:30:08.215Z,206.70
2022-09-07T05:31:19.326Z,218.82
2022-09-07T05:31:53.803Z,210.00
2022-09-07T05:32:29.100Z,209.77
2022-09-07T05:33:04.634Z,210.00
2022-09-07T05:34:30.629Z,221.10
2022-09-07T05:34:52.854Z,243.08
2022-09-07T05:35:25.988Z,209.09
2022-09-07T05:36:01.198Z,215.51
2022-09-07T05:36:36.445Z,183.74
2022-09-07T05:37:12.049Z,214.68
2022-09-07T05:37:47.174Z,210.60
2022-09-07T05:38:22.168Z,229.25
2022-09-07T05:38:57.293Z,185.17
2022-09-07T05:39:32.302Z,210.00
2022-09-07T05:40:07.675Z,173.23
2022-09-07T05:40:42.799Z,196.36
2022-09-07T05:41:18.043Z,221.17
2022-09-07T05:41:53.643Z,214.78
2022-09-07T05:42:29.266Z,209.16
2022-09-07T05:43:04.467Z,209.88
2022-09-07T05:44:50.300Z,209.77
2022-09-07T05:45:25.759Z,210.00
2022-09-07T05:46:01.252Z,209.88
2022-09-07T05:46:36.488Z,210.00
2022-09-07T05:47:11.861Z,210.00
2022-09-07T05:47:47.375Z,209.39
2022-09-07T05:48:22.307Z,203.46
2022-09-07T05:48:57.695Z,209.16
2022-09-07T05:49:33.049Z,209.39
2022-09-07T05:50:08.871Z,209.39
2022-09-07T05:50:44.244Z,210.00
2022-09-07T05:51:19.276Z,209.88
2022-09-07T05:51:54.755Z,210.00
2022-09-07T05:52:30.132Z,209.88
2022-09-07T05:53:05.481Z,220.37
2022-09-07T05:53:40.890Z,282.93
2022-09-07T05:54:16.247Z,221.18
2022-09-07T05:54:54.264Z,195.18
2022-09-07T05:55:30.584Z,207.69
2022-09-07T05:56:05.214Z,227.76
2022-09-07T05:56:37.458Z,208.04
2022-09-07T05:57:12.710Z,232.52
2022-09-07T05:57:47.931Z,209.88
2022-09-07T05:58:23.455Z,25.31
2022-09-07T05:58:58.527Z,30.00
2022-09-07T05:59:33.938Z,212.92
2022-09-07T06:00:09.233Z,210.00
2022-09-07T06:00:44.334Z,190.09
2022-09-07T06:01:19.777Z,219.70
2022-09-07T06:01:55.247Z,210.00
2022-09-07T06:02:30.983Z,213.41
2022-09-07T06:03:06.369Z,193.64
2022-09-07T06:03:41.641Z,190.17
2022-09-07T06:04:16.710Z,249.23
2022-09-07T06:04:51.975Z,47.14
2022-09-07T06:05:27.639Z,71.73
2022-09-07T06:06:02.877Z,209.05
2022-09-07T06:06:38.923Z,64.49
2022-09-07T06:07:22.204Z,73.13
2022-09-07T06:07:51.006Z,244.59
2022-09-07T06:08:26.850Z,233.00
2022-09-07T06:09:02.572Z,217.44
2022-09-07T06:10:50.266Z,75.00
2022-09-07T06:11:26.194Z,162.43
2022-09-07T06:12:02.029Z,171.83
2022-09-07T06:12:37.407Z,198.98
2022-09-07T06:13:12.881Z,173.79
2022-09-07T06:13:48.342Z,23.19
2022-09-07T06:14:23.875Z,220.10
2022-09-07T06:14:59.762Z,225.70
2022-09-07T06:15:35.071Z,132.89
2022-09-07T06:16:10.577Z,49.14
2022-09-07T06:16:45.850Z,67.67
2022-09-07T06:17:21.744Z,41.17
2022-09-07T06:17:57.657Z,54.60
2022-09-07T06:18:32.901Z,75.00
2022-09-07T06:19:08.252Z,70.97
2022-09-07T06:19:43.365Z,66.74
2022-09-07T06:20:18.849Z,124.69
2022-09-07T06:20:54.146Z,75.00
2022-09-07T06:21:29.470Z,57.83
2022-09-07T06:22:04.675Z,68.31
2022-09-07T06:22:40.032Z,198.79
2022-09-07T06:23:15.258Z,213.56
2022-09-07T06:23:50.536Z,227.95
2022-09-07T06:24:25.955Z,234.64
2022-09-07T06:25:01.433Z,169.36
2022-09-07T06:25:36.931Z,189.36
2022-09-07T06:26:12.528Z,185.34
2022-09-07T06:26:47.755Z,185.76
2022-09-07T06:27:22.905Z,224.95
2022-09-07T06:27:58.218Z,213.23
2022-09-07T06:28:33.293Z,213.77
2022-09-07T06:29:09.059Z,86.55
2022-09-07T06:29:44.322Z,186.75
2022-09-07T06:30:19.582Z,188.73
2022-09-07T06:30:54.843Z,208.23
2022-09-07T06:31:30.608Z,204.03
2022-09-07T22:01:37.011Z,75.00
2022-09-07T22:02:12.096Z,75.00
2022-09-07T22:02:47.290Z,75.00
2022-09-07T22:03:22.369Z,75.00
2022-09-07T22:03:57.577Z,75.00
2022-09-07T22:04:32.677Z,75.00
2022-09-07T22:05:07.960Z,75.00
2022-09-07T22:05:43.081Z,75.00
2022-09-07T22:06:18.339Z,75.00
2022-09-07T22:06:53.340Z,75.00
2022-09-07T22:07:28.518Z,75.00
2022-09-07T22:08:03.526Z,75.00
2022-09-07T22:08:39.241Z,75.00
2022-09-07T22:09:14.627Z,75.00
2022-09-07T22:09:50.057Z,75.00
2022-09-07T22:10:25.361Z,61.49
2022-09-07T22:11:00.884Z,75.00
2022-09-07T22:11:35.887Z,75.00
2022-09-07T22:12:11.181Z,75.00
2022-09-07T22:12:46.295Z,75.00
2022-09-07T22:13:21.782Z,75.00
2022-09-07T22:14:04.166Z,75.00
2022-09-07T22:14:39.494Z,75.00
2022-09-07T22:15:14.781Z,75.00
2022-09-07T22:15:50.344Z,75.00
2022-09-07T22:16:25.789Z,70.25
2022-09-07T22:17:00.868Z,42.65
2022-09-07T22:17:36.575Z,30.00
2022-09-07T22:18:11.763Z,30.00
2022-09-07T22:18:47.170Z,30.00
2022-09-07T22:19:22.252Z,39.70
2022-09-07T22:19:57.477Z,72.34
2022-09-07T22:20:32.665Z,75.00
2022-09-07T22:21:08.082Z,75.00
2022-09-07T22:21:43.099Z,75.00
2022-09-07T22:22:18.486Z,75.00
2022-09-07T22:22:53.496Z,51.73
2022-09-07T22:23:28.895Z,64.55
2022-09-07T22:24:04.009Z,30.00
2022-09-07T22:24:39.311Z,42.65
2022-09-07T22:25:14.603Z,57.84
2022-09-07T22:25:49.739Z,62.34
2022-09-07T22:26:25.022Z,75.00
2022-09-07T22:27:00.357Z,70.25
2022-09-07T22:27:35.786Z,69.58
2022-09-07T22:28:11.372Z,75.00
2022-09-07T22:28:46.866Z,75.00
2022-09-07T22:29:22.267Z,75.00
2022-09-07T22:29:57.492Z,75.00
2022-09-07T22:30:32.591Z,63.83
2022-09-07T22:31:08.139Z,30.00
2022-09-07T22:31:43.537Z,30.00
2022-09-07T22:32:18.907Z,53.27
2022-09-07T22:32:54.104Z,30.00
2022-09-07T22:33:29.656Z,30.00
2022-09-07T22:34:04.802Z,30.00
2022-09-07T22:34:40.026Z,72.98
2022-09-07T22:35:15.512Z,75.00
2022-09-07T22:35:50.630Z,75.00
2022-09-07T22:36:25.593Z,69.58
2022-09-07T22:37:01.009Z,47.16
2022-09-07T22:37:36.471Z,30.00
2022-09-07T22:38:11.763Z,32.66
2022-09-07T22:38:47.136Z,75.00
2022-09-07T22:39:22.354Z,75.00
2022-09-07T22:39:57.416Z,75.00
2022-09-07T22:40:32.407Z,75.00
2022-09-07T22:41:07.636Z,70.25
2022-09-07T22:41:42.709Z,30.00
2022-09-07T22:42:17.909Z,30.00
2022-09-07T22:42:53.433Z,35.13
2022-09-07T22:43:28.916Z,30.00
2022-09-07T22:44:04.130Z,30.00
2022-09-07T22:44:39.213Z,30.00
2022-09-07T22:45:14.821Z,30.00
2022-09-07T22:45:50.321Z,46.43
2022-09-07T22:46:25.536Z,30.00
2022-09-07T22:47:00.846Z,48.61
2022-09-07T22:47:35.980Z,30.00
2022-09-07T22:48:10.894Z,30.00
2022-09-07T22:48:46.099Z,55.57
2022-09-07T22:49:21.355Z,30.00
2022-09-07T22:49:56.602Z,30.00
2022-09-07T22:50:31.828Z,30.00
2022-09-07T22:51:07.137Z,47.95
2022-09-07T22:51:42.224Z,75.00
2022-09-07T22:52:17.290Z,75.00
2022-09-07T22:52:52.727Z,75.00
2022-09-07T22:53:27.808Z,75.00
2022-09-07T22:54:02.933Z,75.00
2022-09-07T22:54:38.282Z,75.00
2022-09-07T22:55:13.586Z,75.00
2022-09-07T22:55:48.820Z,75.00
2022-09-07T22:56:24.057Z,75.00
2022-09-07T22:56:59.268Z,62.35
2022-09-07T22:57:34.461Z,32.05
2022-09-07T22:58:09.761Z,37.70
2022-09-07T22:58:45.170Z,32.18